sensor_id;sensor_type;location;lat;lon;timestamp;P1;durP1;ratioP1;P2;durP2;ratioP2
72501;SDS011;60524;49.874;8.652;2022-10-20T00:01:14;14.43;;;5.22;;
72501;SDS011;60524;49.874;8.652;2022-10-20T00:03:40;11.18;;;5.88;;
72501;SDS011;60524;49.874;8.652;2022-10-20T00:06:16;9.85;;;5.40;;
72501;SDS011;60524;49.874;8.652;2022-10-20T00:08:42;13.15;;;5.53;;
72501;SDS011;60524;49.874;8.652;2022-10-20T00:11:08;11.63;;;5.55;;
72501;SDS011;60524;49.874;8.652;2022-10-20T00:13:34;13.70;;;5.50;;
72501;SDS011;60524;49.874;8.652;2022-10-20T00:15:59;10.27;;;5.32;;
72501;SDS011;60524;49.874;8.652;2022-10-20T00:18:25;14.68;;;5.32;;
72501;SDS011;60524;49.874;8.652;2022-10-20T00:20:50;13.45;;;5.40;;
72501;SDS011;60524;49.874;8.652;2022-10-20T00:23:16;10.60;;;5.20;;
72501;SDS011;60524;49.874;8.652;2022-10-20T00:25:41;11.10;;;5.10;;
72501;SDS011;60524;49.874;8.652;2022-10-20T00:28:06;10.57;;;5.20;;
72501;SDS011;60524;49.874;8.652;2022-10-20T00:30:35;10.23;;;5.00;;
72501;SDS011;60524;49.874;8.652;2022-10-20T00:33:01;10.65;;;5.30;;
72501;SDS011;60524;49.874;8.652;2022-10-20T00:35:27;8.15;;;5.47;;
72501;SDS011;60524;49.874;8.652;2022-10-20T00:37:53;13.40;;;5.18;;
72501;SDS011;60524;49.874;8.652;2022-10-20T00:40:19;10.03;;;5.00;;
72501;SDS011;60524;49.874;8.652;2022-10-20T00:42:44;10.70;;;4.65;;
72501;SDS011;60524;49.874;8.652;2022-10-20T00:45:11;9.35;;;5.22;;
72501;SDS011;60524;49.874;8.652;2022-10-20T00:47:40;11.45;;;5.05;;
72501;SDS011;60524;49.874;8.652;2022-10-20T00:52:37;9.73;;;5.00;;
72501;SDS011;60524;49.874;8.652;2022-10-20T00:55:03;9.10;;;4.75;;
72501;SDS011;60524;49.874;8.652;2022-10-20T00:57:30;8.27;;;4.63;;
72501;SDS011;60524;49.874;8.652;2022-10-20T00:59:56;16.80;;;4.95;;
72501;SDS011;60524;49.874;8.652;2022-10-20T01:02:21;11.60;;;4.88;;
72501;SDS011;60524;49.874;8.652;2022-10-20T01:04:47;11.02;;;4.63;;
72501;SDS011;60524;49.874;8.652;2022-10-20T01:07:13;12.95;;;5.63;;
72501;SDS011;60524;49.874;8.652;2022-10-20T01:09:38;12.27;;;5.27;;
72501;SDS011;60524;49.874;8.652;2022-10-20T01:30:41;9.98;;;4.88;;
72501;SDS011;60524;49.874;8.652;2022-10-20T01:38:46;7.63;;;4.68;;
72501;SDS011;60524;49.874;8.652;2022-10-20T01:43:46;10.20;;;5.20;;
72501;SDS011;60524;49.874;8.652;2022-10-20T01:46:13;9.00;;;4.35;;
72501;SDS011;60524;49.874;8.652;2022-10-20T01:48:38;8.40;;;4.35;;
72501;SDS011;60524;49.874;8.652;2022-10-20T01:51:04;8.65;;;5.00;;
72501;SDS011;60524;49.874;8.652;2022-10-20T01:53:31;8.95;;;4.75;;
72501;SDS011;60524;49.874;8.652;2022-10-20T01:55:56;10.63;;;4.83;;
72501;SDS011;60524;49.874;8.652;2022-10-20T02:04:00;7.30;;;4.90;;
72501;SDS011;60524;49.874;8.652;2022-10-20T02:06:31;8.77;;;4.55;;
72501;SDS011;60524;49.874;8.652;2022-10-20T02:08:58;12.68;;;4.90;;
72501;SDS011;60524;49.874;8.652;2022-10-20T02:13:53;9.88;;;4.95;;
72501;SDS011;60524;49.874;8.652;2022-10-20T02:16:22;7.10;;;4.50;;
72501;SDS011;60524;49.874;8.652;2022-10-20T02:18:52;8.95;;;4.78;;
72501;SDS011;60524;49.874;8.652;2022-10-20T02:21:17;7.72;;;4.65;;
72501;SDS011;60524;49.874;8.652;2022-10-20T02:23:43;7.28;;;4.75;;
72501;SDS011;60524;49.874;8.652;2022-10-20T02:26:12;10.95;;;5.07;;
72501;SDS011;60524;49.874;8.652;2022-10-20T02:28:39;7.95;;;4.88;;
72501;SDS011;60524;49.874;8.652;2022-10-20T02:31:07;9.32;;;5.10;;
72501;SDS011;60524;49.874;8.652;2022-10-20T02:33:33;11.50;;;5.15;;
72501;SDS011;60524;49.874;8.652;2022-10-20T02:35:59;9.23;;;4.93;;
72501;SDS011;60524;49.874;8.652;2022-10-20T02:38:24;8.80;;;5.33;;
72501;SDS011;60524;49.874;8.652;2022-10-20T02:40:50;12.98;;;5.38;;
72501;SDS011;60524;49.874;8.652;2022-10-20T02:43:15;9.37;;;5.07;;
72501;SDS011;60524;49.874;8.652;2022-10-20T02:45:40;8.90;;;4.88;;
72501;SDS011;60524;49.874;8.652;2022-10-20T02:48:06;10.73;;;5.00;;
72501;SDS011;60524;49.874;8.652;2022-10-20T02:50:33;8.63;;;4.68;;
72501;SDS011;60524;49.874;8.652;2022-10-20T02:52:59;8.57;;;5.15;;
72501;SDS011;60524;49.874;8.652;2022-10-20T02:55:24;10.30;;;5.10;;
72501;SDS011;60524;49.874;8.652;2022-10-20T02:57:50;12.07;;;5.30;;
72501;SDS011;60524;49.874;8.652;2022-10-20T03:00:18;13.43;;;5.68;;
72501;SDS011;60524;49.874;8.652;2022-10-20T03:02:44;8.85;;;5.18;;
72501;SDS011;60524;49.874;8.652;2022-10-20T03:05:09;9.23;;;5.13;;
72501;SDS011;60524;49.874;8.652;2022-10-20T03:07:34;11.97;;;4.67;;
72501;SDS011;60524;49.874;8.652;2022-10-20T03:09:59;8.90;;;4.97;;
72501;SDS011;60524;49.874;8.652;2022-10-20T03:12:25;8.93;;;5.33;;
72501;SDS011;60524;49.874;8.652;2022-10-20T03:14:50;7.63;;;5.40;;
72501;SDS011;60524;49.874;8.652;2022-10-20T03:17:15;9.20;;;5.23;;
72501;SDS011;60524;49.874;8.652;2022-10-20T03:19:41;15.67;;;5.50;;
72501;SDS011;60524;49.874;8.652;2022-10-20T03:22:06;11.98;;;5.47;;
72501;SDS011;60524;49.874;8.652;2022-10-20T03:24:31;10.47;;;5.73;;
72501;SDS011;60524;49.874;8.652;2022-10-20T03:26:57;13.57;;;5.50;;
72501;SDS011;60524;49.874;8.652;2022-10-20T03:29:22;10.07;;;5.47;;
72501;SDS011;60524;49.874;8.652;2022-10-20T03:31:47;9.57;;;5.60;;
72501;SDS011;60524;49.874;8.652;2022-10-20T03:34:13;9.53;;;5.47;;
72501;SDS011;60524;49.874;8.652;2022-10-20T03:36:38;7.33;;;5.30;;
72501;SDS011;60524;49.874;8.652;2022-10-20T03:39:03;9.50;;;5.10;;
72501;SDS011;60524;49.874;8.652;2022-10-20T03:41:29;9.17;;;5.33;;
72501;SDS011;60524;49.874;8.652;2022-10-20T03:43:54;10.37;;;5.77;;
72501;SDS011;60524;49.874;8.652;2022-10-20T03:46:19;9.17;;;5.67;;
72501;SDS011;60524;49.874;8.652;2022-10-20T03:48:45;8.90;;;5.90;;
72501;SDS011;60524;49.874;8.652;2022-10-20T03:51:10;11.37;;;6.40;;
72501;SDS011;60524;49.874;8.652;2022-10-20T03:53:37;9.07;;;5.45;;
72501;SDS011;60524;49.874;8.652;2022-10-20T03:56:06;12.03;;;6.10;;
72501;SDS011;60524;49.874;8.652;2022-10-20T03:58:32;10.18;;;5.55;;
72501;SDS011;60524;49.874;8.652;2022-10-20T04:00:58;10.52;;;6.00;;
72501;SDS011;60524;49.874;8.652;2022-10-20T04:03:23;10.03;;;5.83;;
72501;SDS011;60524;49.874;8.652;2022-10-20T04:05:48;13.70;;;6.47;;
72501;SDS011;60524;49.874;8.652;2022-10-20T04:08:14;12.80;;;5.90;;
72501;SDS011;60524;49.874;8.652;2022-10-20T04:10:39;11.13;;;5.70;;
72501;SDS011;60524;49.874;8.652;2022-10-20T04:13:04;9.27;;;5.83;;
72501;SDS011;60524;49.874;8.652;2022-10-20T04:15:30;15.73;;;5.78;;
72501;SDS011;60524;49.874;8.652;2022-10-20T04:17:55;9.95;;;5.70;;
72501;SDS011;60524;49.874;8.652;2022-10-20T04:20:20;12.47;;;6.57;;
72501;SDS011;60524;49.874;8.652;2022-10-20T04:22:46;10.03;;;5.93;;
72501;SDS011;60524;49.874;8.652;2022-10-20T04:25:11;11.70;;;6.33;;
72501;SDS011;60524;49.874;8.652;2022-10-20T04:27:37;12.65;;;5.88;;
72501;SDS011;60524;49.874;8.652;2022-10-20T04:30:03;9.98;;;6.00;;
72501;SDS011;60524;49.874;8.652;2022-10-20T04:32:29;12.55;;;6.32;;
72501;SDS011;60524;49.874;8.652;2022-10-20T04:34:54;10.27;;;5.97;;
72501;SDS011;60524;49.874;8.652;2022-10-20T04:37:20;11.23;;;6.72;;
72501;SDS011;60524;49.874;8.652;2022-10-20T04:39:45;14.03;;;5.93;;
72501;SDS011;60524;49.874;8.652;2022-10-20T04:42:11;11.35;;;6.15;;
72501;SDS011;60524;49.874;8.652;2022-10-20T04:44:36;10.17;;;6.10;;
72501;SDS011;60524;49.874;8.652;2022-10-20T04:47:01;10.00;;;5.90;;
72501;SDS011;60524;49.874;8.652;2022-10-20T04:49:27;12.80;;;6.47;;
72501;SDS011;60524;49.874;8.652;2022-10-20T04:51:52;10.57;;;5.90;;
72501;SDS011;60524;49.874;8.652;2022-10-20T04:54:17;13.53;;;7.10;;
72501;SDS011;60524;49.874;8.652;2022-10-20T04:56:42;10.20;;;5.83;;
72501;SDS011;60524;49.874;8.652;2022-10-20T04:59:08;10.27;;;6.60;;
72501;SDS011;60524;49.874;8.652;2022-10-20T05:01:36;12.75;;;6.75;;
72501;SDS011;60524;49.874;8.652;2022-10-20T05:04:01;14.02;;;6.82;;
72501;SDS011;60524;49.874;8.652;2022-10-20T05:06:27;13.07;;;6.80;;
72501;SDS011;60524;49.874;8.652;2022-10-20T05:08:57;13.07;;;6.72;;
72501;SDS011;60524;49.874;8.652;2022-10-20T05:11:25;13.50;;;7.88;;
72501;SDS011;60524;49.874;8.652;2022-10-20T05:13:52;11.00;;;6.43;;
72501;SDS011;60524;49.874;8.652;2022-10-20T05:16:17;10.10;;;6.47;;
72501;SDS011;60524;49.874;8.652;2022-10-20T05:18:43;13.48;;;6.95;;
72501;SDS011;60524;49.874;8.652;2022-10-20T05:21:10;13.52;;;7.20;;
72501;SDS011;60524;49.874;8.652;2022-10-20T05:23:38;11.45;;;7.22;;
72501;SDS011;60524;49.874;8.652;2022-10-20T05:26:04;12.43;;;7.50;;
72501;SDS011;60524;49.874;8.652;2022-10-20T05:28:31;12.50;;;6.70;;
72501;SDS011;60524;49.874;8.652;2022-10-20T05:30:59;13.83;;;7.93;;
72501;SDS011;60524;49.874;8.652;2022-10-20T05:33:25;13.05;;;6.72;;
72501;SDS011;60524;49.874;8.652;2022-10-20T05:35:51;12.87;;;7.83;;
72501;SDS011;60524;49.874;8.652;2022-10-20T05:38:16;14.47;;;8.03;;
72501;SDS011;60524;49.874;8.652;2022-10-20T05:40:41;12.97;;;8.17;;
72501;SDS011;60524;49.874;8.652;2022-10-20T05:43:07;17.00;;;8.00;;
72501;SDS011;60524;49.874;8.652;2022-10-20T05:45:32;13.10;;;7.67;;
72501;SDS011;60524;49.874;8.652;2022-10-20T05:47:57;14.33;;;8.63;;
72501;SDS011;60524;49.874;8.652;2022-10-20T05:50:23;17.00;;;8.67;;
72501;SDS011;60524;49.874;8.652;2022-10-20T05:52:48;20.50;;;8.10;;
72501;SDS011;60524;49.874;8.652;2022-10-20T05:55:13;18.13;;;8.43;;
72501;SDS011;60524;49.874;8.652;2022-10-20T05:57:38;16.93;;;8.10;;
72501;SDS011;60524;49.874;8.652;2022-10-20T06:00:04;11.97;;;7.50;;
72501;SDS011;60524;49.874;8.652;2022-10-20T06:02:30;15.27;;;8.80;;
72501;SDS011;60524;49.874;8.652;2022-10-20T06:04:55;12.57;;;8.10;;
72501;SDS011;60524;49.874;8.652;2022-10-20T06:07:20;17.07;;;8.73;;
72501;SDS011;60524;49.874;8.652;2022-10-20T06:09:46;14.93;;;8.73;;
72501;SDS011;60524;49.874;8.652;2022-10-20T06:12:11;16.63;;;9.50;;
72501;SDS011;60524;49.874;8.652;2022-10-20T06:14:36;17.67;;;7.90;;
72501;SDS011;60524;49.874;8.652;2022-10-20T06:17:01;14.50;;;8.90;;
72501;SDS011;60524;49.874;8.652;2022-10-20T06:19:27;17.48;;;9.00;;
72501;SDS011;60524;49.874;8.652;2022-10-20T06:21:52;16.90;;;8.73;;
72501;SDS011;60524;49.874;8.652;2022-10-20T06:24:18;16.45;;;8.68;;
72501;SDS011;60524;49.874;8.652;2022-10-20T06:26:44;14.40;;;8.50;;
72501;SDS011;60524;49.874;8.652;2022-10-20T06:29:10;14.10;;;8.73;;
72501;SDS011;60524;49.874;8.652;2022-10-20T06:31:42;15.50;;;9.23;;
72501;SDS011;60524;49.874;8.652;2022-10-20T06:34:09;16.40;;;9.13;;
72501;SDS011;60524;49.874;8.652;2022-10-20T06:36:40;14.40;;;9.27;;
72501;SDS011;60524;49.874;8.652;2022-10-20T06:39:07;15.82;;;8.65;;
72501;SDS011;60524;49.874;8.652;2022-10-20T06:41:34;16.73;;;9.05;;
72501;SDS011;60524;49.874;8.652;2022-10-20T06:44:00;14.67;;;8.67;;
72501;SDS011;60524;49.874;8.652;2022-10-20T06:46:26;17.33;;;9.50;;
72501;SDS011;60524;49.874;8.652;2022-10-20T06:48:52;17.80;;;9.30;;
72501;SDS011;60524;49.874;8.652;2022-10-20T06:51:18;22.83;;;9.40;;
72501;SDS011;60524;49.874;8.652;2022-10-20T06:53:46;19.27;;;9.82;;
72501;SDS011;60524;49.874;8.652;2022-10-20T06:56:13;15.88;;;9.18;;
72501;SDS011;60524;49.874;8.652;2022-10-20T06:58:40;16.52;;;9.43;;
72501;SDS011;60524;49.874;8.652;2022-10-20T07:01:07;15.68;;;9.70;;
72501;SDS011;60524;49.874;8.652;2022-10-20T07:03:35;19.08;;;9.23;;
72501;SDS011;60524;49.874;8.652;2022-10-20T07:06:02;18.00;;;9.48;;
72501;SDS011;60524;49.874;8.652;2022-10-20T07:08:28;20.27;;;10.07;;
72501;SDS011;60524;49.874;8.652;2022-10-20T07:13:31;19.27;;;9.50;;
72501;SDS011;60524;49.874;8.652;2022-10-20T07:15:58;16.15;;;9.32;;
72501;SDS011;60524;49.874;8.652;2022-10-20T07:18:24;16.67;;;9.40;;
72501;SDS011;60524;49.874;8.652;2022-10-20T07:20:50;16.90;;;9.63;;
72501;SDS011;60524;49.874;8.652;2022-10-20T07:23:15;18.50;;;9.27;;
72501;SDS011;60524;49.874;8.652;2022-10-20T07:25:41;15.45;;;9.38;;
72501;SDS011;60524;49.874;8.652;2022-10-20T07:28:07;17.27;;;9.57;;
72501;SDS011;60524;49.874;8.652;2022-10-20T07:30:36;16.05;;;9.10;;
72501;SDS011;60524;49.874;8.652;2022-10-20T07:33:06;15.70;;;9.43;;
72501;SDS011;60524;49.874;8.652;2022-10-20T07:35:32;17.50;;;9.65;;
72501;SDS011;60524;49.874;8.652;2022-10-20T07:37:57;18.05;;;9.57;;
72501;SDS011;60524;49.874;8.652;2022-10-20T07:40:23;17.50;;;9.30;;
72501;SDS011;60524;49.874;8.652;2022-10-20T07:42:48;16.63;;;9.67;;
72501;SDS011;60524;49.874;8.652;2022-10-20T07:45:13;17.03;;;9.37;;
72501;SDS011;60524;49.874;8.652;2022-10-20T07:47:39;18.93;;;9.83;;
72501;SDS011;60524;49.874;8.652;2022-10-20T07:50:04;18.37;;;10.40;;
72501;SDS011;60524;49.874;8.652;2022-10-20T07:52:30;21.40;;;9.65;;
72501;SDS011;60524;49.874;8.652;2022-10-20T07:54:55;14.93;;;9.50;;
72501;SDS011;60524;49.874;8.652;2022-10-20T07:57:21;22.13;;;9.82;;
72501;SDS011;60524;49.874;8.652;2022-10-20T07:59:46;17.27;;;10.17;;
72501;SDS011;60524;49.874;8.652;2022-10-20T08:02:11;20.57;;;10.53;;
72501;SDS011;60524;49.874;8.652;2022-10-20T08:04:39;35.17;;;10.73;;
72501;SDS011;60524;49.874;8.652;2022-10-20T08:07:05;20.25;;;9.27;;
72501;SDS011;60524;49.874;8.652;2022-10-20T08:09:31;18.53;;;9.53;;
72501;SDS011;60524;49.874;8.652;2022-10-20T08:11:56;16.17;;;9.80;;
72501;SDS011;60524;49.874;8.652;2022-10-20T08:14:22;20.20;;;10.53;;
72501;SDS011;60524;49.874;8.652;2022-10-20T08:16:50;20.08;;;9.93;;
72501;SDS011;60524;49.874;8.652;2022-10-20T08:19:16;17.57;;;9.73;;
72501;SDS011;60524;49.874;8.652;2022-10-20T08:21:41;21.88;;;10.32;;
72501;SDS011;60524;49.874;8.652;2022-10-20T08:24:06;20.93;;;10.47;;
72501;SDS011;60524;49.874;8.652;2022-10-20T08:26:32;19.13;;;10.63;;
72501;SDS011;60524;49.874;8.652;2022-10-20T08:28:58;18.88;;;9.73;;
72501;SDS011;60524;49.874;8.652;2022-10-20T08:31:23;19.90;;;10.07;;
72501;SDS011;60524;49.874;8.652;2022-10-20T08:33:48;19.00;;;10.13;;
72501;SDS011;60524;49.874;8.652;2022-10-20T08:36:14;18.35;;;9.93;;
72501;SDS011;60524;49.874;8.652;2022-10-20T08:38:40;17.35;;;10.35;;
72501;SDS011;60524;49.874;8.652;2022-10-20T08:41:06;24.75;;;10.90;;
72501;SDS011;60524;49.874;8.652;2022-10-20T08:43:49;20.92;;;10.85;;
72501;SDS011;60524;49.874;8.652;2022-10-20T08:46:18;22.10;;;10.75;;
72501;SDS011;60524;49.874;8.652;2022-10-20T08:48:44;18.58;;;10.65;;
72501;SDS011;60524;49.874;8.652;2022-10-20T08:51:18;19.00;;;10.23;;
72501;SDS011;60524;49.874;8.652;2022-10-20T08:53:46;23.08;;;9.45;;
72501;SDS011;60524;49.874;8.652;2022-10-20T08:56:13;17.30;;;10.02;;
72501;SDS011;60524;49.874;8.652;2022-10-20T08:58:42;18.67;;;10.18;;
72501;SDS011;60524;49.874;8.652;2022-10-20T09:01:21;17.95;;;9.20;;
72501;SDS011;60524;49.874;8.652;2022-10-20T09:03:51;21.00;;;10.18;;
72501;SDS011;60524;49.874;8.652;2022-10-20T09:06:19;18.40;;;10.00;;
72501;SDS011;60524;49.874;8.652;2022-10-20T09:08:45;20.50;;;10.30;;
72501;SDS011;60524;49.874;8.652;2022-10-20T09:11:15;18.45;;;9.50;;
72501;SDS011;60524;49.874;8.652;2022-10-20T09:13:42;20.25;;;10.05;;
72501;SDS011;60524;49.874;8.652;2022-10-20T09:18:57;20.85;;;11.15;;
72501;SDS011;60524;49.874;8.652;2022-10-20T09:21:23;19.15;;;10.77;;
72501;SDS011;60524;49.874;8.652;2022-10-20T09:23:50;16.70;;;9.43;;
72501;SDS011;60524;49.874;8.652;2022-10-20T09:26:22;18.77;;;10.25;;
72501;SDS011;60524;49.874;8.652;2022-10-20T09:29:06;19.30;;;10.48;;
72501;SDS011;60524;49.874;8.652;2022-10-20T09:36:46;20.65;;;11.10;;
72501;SDS011;60524;49.874;8.652;2022-10-20T09:39:22;20.45;;;10.57;;
72501;SDS011;60524;49.874;8.652;2022-10-20T09:41:58;16.15;;;9.48;;
72501;SDS011;60524;49.874;8.652;2022-10-20T09:44:26;18.38;;;10.60;;
72501;SDS011;60524;49.874;8.652;2022-10-20T09:46:52;18.90;;;10.30;;
72501;SDS011;60524;49.874;8.652;2022-10-20T09:54:18;17.25;;;9.90;;
72501;SDS011;60524;49.874;8.652;2022-10-20T09:56:44;20.60;;;9.27;;
72501;SDS011;60524;49.874;8.652;2022-10-20T09:59:19;15.65;;;9.85;;
72501;SDS011;60524;49.874;8.652;2022-10-20T10:01:56;17.70;;;9.80;;
72501;SDS011;60524;49.874;8.652;2022-10-20T10:07:03;17.52;;;10.50;;
72501;SDS011;60524;49.874;8.652;2022-10-20T10:09:36;19.98;;;10.07;;
72501;SDS011;60524;49.874;8.652;2022-10-20T10:12:03;19.00;;;10.73;;
72501;SDS011;60524;49.874;8.652;2022-10-20T10:14:35;20.10;;;10.00;;
72501;SDS011;60524;49.874;8.652;2022-10-20T10:17:00;24.00;;;10.70;;
72501;SDS011;60524;49.874;8.652;2022-10-20T10:19:27;16.88;;;10.07;;
72501;SDS011;60524;49.874;8.652;2022-10-20T10:21:55;17.77;;;10.38;;
72501;SDS011;60524;49.874;8.652;2022-10-20T10:27:05;16.42;;;10.38;;
72501;SDS011;60524;49.874;8.652;2022-10-20T10:29:42;25.52;;;12.02;;
72501;SDS011;60524;49.874;8.652;2022-10-20T10:32:15;20.83;;;11.50;;
72501;SDS011;60524;49.874;8.652;2022-10-20T10:34:56;19.73;;;10.48;;
72501;SDS011;60524;49.874;8.652;2022-10-20T10:37:25;19.33;;;10.95;;
72501;SDS011;60524;49.874;8.652;2022-10-20T10:39:51;21.95;;;10.50;;
72501;SDS011;60524;49.874;8.652;2022-10-20T10:42:31;22.73;;;12.02;;
72501;SDS011;60524;49.874;8.652;2022-10-20T10:47:57;18.63;;;11.10;;
72501;SDS011;60524;49.874;8.652;2022-10-20T10:50:36;25.48;;;11.43;;
72501;SDS011;60524;49.874;8.652;2022-10-20T10:56:22;20.48;;;10.55;;
72501;SDS011;60524;49.874;8.652;2022-10-20T10:59:00;20.55;;;10.07;;
72501;SDS011;60524;49.874;8.652;2022-10-20T11:18:05;16.13;;;10.05;;
72501;SDS011;60524;49.874;8.652;2022-10-20T11:20:39;14.57;;;9.30;;
72501;SDS011;60524;49.874;8.652;2022-10-20T11:23:29;19.23;;;9.30;;
72501;SDS011;60524;49.874;8.652;2022-10-20T11:26:12;15.15;;;9.10;;
72501;SDS011;60524;49.874;8.652;2022-10-20T11:28:44;14.82;;;9.57;;
72501;SDS011;60524;49.874;8.652;2022-10-20T11:34:13;17.90;;;9.25;;
72501;SDS011;60524;49.874;8.652;2022-10-20T11:36:46;17.08;;;9.07;;
72501;SDS011;60524;49.874;8.652;2022-10-20T11:39:17;15.45;;;9.27;;
72501;SDS011;60524;49.874;8.652;2022-10-20T11:41:50;19.15;;;11.00;;
72501;SDS011;60524;49.874;8.652;2022-10-20T11:46:56;16.60;;;9.23;;
72501;SDS011;60524;49.874;8.652;2022-10-20T11:49:24;16.88;;;9.75;;
72501;SDS011;60524;49.874;8.652;2022-10-20T11:57:13;19.23;;;10.55;;
72501;SDS011;60524;49.874;8.652;2022-10-20T12:13:24;19.55;;;10.70;;
72501;SDS011;60524;49.874;8.652;2022-10-20T12:15:51;21.33;;;10.95;;
72501;SDS011;60524;49.874;8.652;2022-10-20T12:18:24;21.00;;;11.77;;
72501;SDS011;60524;49.874;8.652;2022-10-20T12:21:13;23.42;;;13.27;;
72501;SDS011;60524;49.874;8.652;2022-10-20T12:34:57;23.90;;;13.60;;
72501;SDS011;60524;49.874;8.652;2022-10-20T12:37:28;19.45;;;10.55;;
72501;SDS011;60524;49.874;8.652;2022-10-20T12:39:55;23.92;;;12.77;;
72501;SDS011;60524;49.874;8.652;2022-10-20T12:42:30;31.10;;;17.20;;
72501;SDS011;60524;49.874;8.652;2022-10-20T12:44:58;19.98;;;11.93;;
72501;SDS011;60524;49.874;8.652;2022-10-20T12:47:27;21.02;;;11.15;;
72501;SDS011;60524;49.874;8.652;2022-10-20T12:53:10;16.15;;;10.35;;
72501;SDS011;60524;49.874;8.652;2022-10-20T12:55:55;16.42;;;10.18;;
72501;SDS011;60524;49.874;8.652;2022-10-20T13:05:56;19.50;;;10.93;;
72501;SDS011;60524;49.874;8.652;2022-10-20T13:08:25;19.52;;;9.40;;
72501;SDS011;60524;49.874;8.652;2022-10-20T13:10:50;18.05;;;10.20;;
72501;SDS011;60524;49.874;8.652;2022-10-20T13:23:15;18.95;;;10.65;;
72501;SDS011;60524;49.874;8.652;2022-10-20T13:25:45;19.75;;;10.45;;
72501;SDS011;60524;49.874;8.652;2022-10-20T13:28:14;21.42;;;11.60;;
72501;SDS011;60524;49.874;8.652;2022-10-20T13:35:50;22.38;;;12.32;;
72501;SDS011;60524;49.874;8.652;2022-10-20T13:38:31;28.05;;;12.50;;
72501;SDS011;60524;49.874;8.652;2022-10-20T13:43:51;20.80;;;11.43;;
72501;SDS011;60524;49.874;8.652;2022-10-20T13:46:34;20.98;;;10.93;;
72501;SDS011;60524;49.874;8.652;2022-10-20T13:49:17;21.00;;;11.82;;
72501;SDS011;60524;49.874;8.652;2022-10-20T13:51:46;18.92;;;10.57;;
72501;SDS011;60524;49.874;8.652;2022-10-20T13:56:59;19.10;;;10.02;;
72501;SDS011;60524;49.874;8.652;2022-10-20T13:59:27;19.55;;;10.45;;
72501;SDS011;60524;49.874;8.652;2022-10-20T14:01:54;22.10;;;11.93;;
72501;SDS011;60524;49.874;8.652;2022-10-20T14:04:28;20.85;;;10.85;;
72501;SDS011;60524;49.874;8.652;2022-10-20T14:07:02;20.48;;;11.63;;
72501;SDS011;60524;49.874;8.652;2022-10-20T14:09:28;30.80;;;13.43;;
72501;SDS011;60524;49.874;8.652;2022-10-20T14:12:00;23.77;;;13.05;;
72501;SDS011;60524;49.874;8.652;2022-10-20T14:14:28;21.92;;;11.40;;
72501;SDS011;60524;49.874;8.652;2022-10-20T14:16:57;22.80;;;12.43;;
72501;SDS011;60524;49.874;8.652;2022-10-20T14:19:25;20.67;;;11.70;;
72501;SDS011;60524;49.874;8.652;2022-10-20T14:21:52;20.55;;;13.38;;
72501;SDS011;60524;49.874;8.652;2022-10-20T14:24:31;23.35;;;13.10;;
72501;SDS011;60524;49.874;8.652;2022-10-20T14:27:09;26.27;;;13.40;;
72501;SDS011;60524;49.874;8.652;2022-10-20T14:29:41;21.33;;;12.02;;
72501;SDS011;60524;49.874;8.652;2022-10-20T14:32:09;25.23;;;12.35;;
72501;SDS011;60524;49.874;8.652;2022-10-20T14:34:51;21.23;;;12.13;;
72501;SDS011;60524;49.874;8.652;2022-10-20T14:37:23;24.90;;;13.10;;
72501;SDS011;60524;49.874;8.652;2022-10-20T14:39:58;21.30;;;12.63;;
72501;SDS011;60524;49.874;8.652;2022-10-20T14:42:26;19.50;;;11.77;;
72501;SDS011;60524;49.874;8.652;2022-10-20T14:44:54;23.55;;;12.05;;
72501;SDS011;60524;49.874;8.652;2022-10-20T14:47:21;23.25;;;12.65;;
72501;SDS011;60524;49.874;8.652;2022-10-20T14:49:47;23.70;;;11.65;;
72501;SDS011;60524;49.874;8.652;2022-10-20T14:54:40;23.47;;;12.73;;
72501;SDS011;60524;49.874;8.652;2022-10-20T14:59:35;29.10;;;14.68;;
72501;SDS011;60524;49.874;8.652;2022-10-20T15:02:04;23.55;;;12.73;;
72501;SDS011;60524;49.874;8.652;2022-10-20T15:04:34;25.23;;;12.60;;
72501;SDS011;60524;49.874;8.652;2022-10-20T15:09:53;27.48;;;13.55;;
72501;SDS011;60524;49.874;8.652;2022-10-20T15:12:22;25.95;;;14.88;;
72501;SDS011;60524;49.874;8.652;2022-10-20T15:14:53;21.73;;;12.95;;
72501;SDS011;60524;49.874;8.652;2022-10-20T15:17:36;20.33;;;12.90;;
72501;SDS011;60524;49.874;8.652;2022-10-20T15:22:54;32.88;;;19.20;;
72501;SDS011;60524;49.874;8.652;2022-10-20T15:28:18;26.15;;;14.43;;
72501;SDS011;60524;49.874;8.652;2022-10-20T15:30:46;22.52;;;13.65;;
72501;SDS011;60524;49.874;8.652;2022-10-20T15:33:12;23.63;;;13.48;;
72501;SDS011;60524;49.874;8.652;2022-10-20T15:35:37;27.73;;;13.85;;
72501;SDS011;60524;49.874;8.652;2022-10-20T15:38:08;31.63;;;15.30;;
72501;SDS011;60524;49.874;8.652;2022-10-20T15:40:33;25.10;;;14.82;;
72501;SDS011;60524;49.874;8.652;2022-10-20T15:42:59;31.30;;;17.38;;
72501;SDS011;60524;49.874;8.652;2022-10-20T15:45:24;33.93;;;16.43;;
72501;SDS011;60524;49.874;8.652;2022-10-20T15:47:51;27.63;;;14.52;;
72501;SDS011;60524;49.874;8.652;2022-10-20T15:50:17;28.13;;;14.93;;
72501;SDS011;60524;49.874;8.652;2022-10-20T15:52:42;23.63;;;14.57;;
72501;SDS011;60524;49.874;8.652;2022-10-20T15:55:15;23.88;;;14.35;;
72501;SDS011;60524;49.874;8.652;2022-10-20T15:57:46;21.85;;;13.13;;
72501;SDS011;60524;49.874;8.652;2022-10-20T16:00:16;27.17;;;14.93;;
72501;SDS011;60524;49.874;8.652;2022-10-20T16:02:41;29.63;;;16.75;;
72501;SDS011;60524;49.874;8.652;2022-10-20T16:05:07;28.63;;;15.20;;
72501;SDS011;60524;49.874;8.652;2022-10-20T16:07:32;23.40;;;14.05;;
72501;SDS011;60524;49.874;8.652;2022-10-20T16:09:58;27.75;;;14.98;;
72501;SDS011;60524;49.874;8.652;2022-10-20T16:12:23;26.73;;;15.53;;
72501;SDS011;60524;49.874;8.652;2022-10-20T16:14:50;30.75;;;14.68;;
72501;SDS011;60524;49.874;8.652;2022-10-20T16:17:15;27.33;;;15.25;;
72501;SDS011;60524;49.874;8.652;2022-10-20T16:19:41;30.37;;;15.70;;
72501;SDS011;60524;49.874;8.652;2022-10-20T16:22:06;29.55;;;15.38;;
72501;SDS011;60524;49.874;8.652;2022-10-20T16:24:31;30.83;;;16.80;;
72501;SDS011;60524;49.874;8.652;2022-10-20T16:26:57;29.80;;;15.80;;
72501;SDS011;60524;49.874;8.652;2022-10-20T16:29:22;28.97;;;16.33;;
72501;SDS011;60524;49.874;8.652;2022-10-20T16:31:47;27.60;;;15.07;;
72501;SDS011;60524;49.874;8.652;2022-10-20T16:34:13;28.93;;;15.93;;
72501;SDS011;60524;49.874;8.652;2022-10-20T16:36:38;28.73;;;15.93;;
72501;SDS011;60524;49.874;8.652;2022-10-20T16:39:03;28.53;;;17.03;;
72501;SDS011;60524;49.874;8.652;2022-10-20T16:41:28;29.77;;;16.77;;
72501;SDS011;60524;49.874;8.652;2022-10-20T16:43:54;33.33;;;17.13;;
72501;SDS011;60524;49.874;8.652;2022-10-20T16:46:19;35.37;;;18.13;;
72501;SDS011;60524;49.874;8.652;2022-10-20T16:48:44;28.63;;;15.80;;
72501;SDS011;60524;49.874;8.652;2022-10-20T16:51:11;33.70;;;17.65;;
72501;SDS011;60524;49.874;8.652;2022-10-20T16:53:36;32.83;;;16.98;;
72501;SDS011;60524;49.874;8.652;2022-10-20T16:56:02;28.73;;;16.23;;
72501;SDS011;60524;49.874;8.652;2022-10-20T16:58:28;28.73;;;15.95;;
72501;SDS011;60524;49.874;8.652;2022-10-20T17:03:33;31.50;;;17.35;;
72501;SDS011;60524;49.874;8.652;2022-10-20T17:06:01;28.77;;;16.27;;
72501;SDS011;60524;49.874;8.652;2022-10-20T17:08:28;37.92;;;18.08;;
72501;SDS011;60524;49.874;8.652;2022-10-20T17:13:25;33.50;;;17.73;;
72501;SDS011;60524;49.874;8.652;2022-10-20T17:15:51;31.35;;;17.27;;
72501;SDS011;60524;49.874;8.652;2022-10-20T17:18:17;31.38;;;17.08;;
72501;SDS011;60524;49.874;8.652;2022-10-20T17:20:43;29.10;;;16.80;;